Airfield :







YOU CAN JOIN US ON...

 
LOGIN :

Register | Disclaimer

   EN    FR    IT 

 









Legend :    VFR   Marginal VFR   IFR   Intensive IFR   Very Intensive IFR
Visi :
Ceiling :
>= 8 km
>= 3000ft
5 to 8 km
1000 to 3000 ft
1500m to 5 km
500 to 1000 ft
800 to 1500m
200 to 500 ft
< 800m
< 200 ft
Symbols :   Thunderstorms  Fog  Heavy snow  Heavy precipitations  Wind > 20 kt






- Airport Elevation : 6 ft
- IATA code : AEY


BIAR - Akureyri

CURRENT METAR :
  • 192100Z 32006KT 270V010 9999 BKN047 15/07 Q1006

EXPIRED METARs :
  • 192000Z 34011KT 9999 SCT063 BKN073 16/08 Q1006
  • 191900Z 33012KT 9999 BKN060 15/08 Q1006
  • 191800Z 31010KT 9999 SCT061 BKN089 14/08 Q1007
  • 191700Z 32011KT 9999 SCT058 BKN077 14/08 Q1007

TAF TAF BIAR
Valid from the 19 at 21:00 until the 20 at 21:00 UTC


191924Z 1921/2021 34008KT 9999 FEW020 BKN040 TX13/1921Z TN09/2003Z
PROB40
TEMPO 1921/2004 SHRA BKN014
BECMG 2010/2012 RA BKN012
BECMG 2016/2018 -SHRA BKN020



MET'MAP, your aeronautical weather chart ! - Copyright ORBIFLY December 2007 - Disclaimer

ORBIFLY MET'MAP TEAM :

Programming & Development : Alexandra Zaïnal
Original concept : Baudouin d'Aumeries
Technical & hardware support : Manuel Goepfert
Assistance : Marc-Olivier Méhu




SOURCES & CREDITS :

   NOAA